Time;durP1;ratioP1;P1;durP2;ratioP2;P2;SDS_P1;SDS_P2;PMS_P1;PMS_P2;Temp;Humidity;BMP_temperature;BMP_pressure;BME280_temperature;BME280_humidity;BME280_pressure;Samples;Min_cycle;Max_cycle;Signal;HPM_P1;HPM_P2
2023/10/24 00:01:33;;;;;;;40.50;21.00;;;12.90;68.70;;;;;;5079752;28;20168;-82
2023/10/24 00:03:58;;;;;;;56.47;22.90;;;12.90;68.70;;;;;;5075741;28;20217;-81
2023/10/24 00:06:24;;;;;;;51.00;24.80;;;12.80;68.50;;;;;;5079823;28;20679;-81
2023/10/24 00:08:49;;;;;;;79.27;22.13;;;12.80;68.60;;;;;;5072291;28;20180;-81
2023/10/24 00:11:24;;;;;;;85.43;25.70;;;12.80;68.50;;;;;;5070872;28;20172;-82
2023/10/24 00:13:50;;;;;;;50.63;19.20;;;12.80;68.50;;;;;;5081169;28;20535;-81
2023/10/24 00:16:15;;;;;;;58.30;19.20;;;12.80;68.60;;;;;;5073034;28;20195;-81
2023/10/24 00:18:41;;;;;;;51.50;23.20;;;12.80;68.60;;;;;;5077305;28;20645;-82
2023/10/24 00:21:07;;;;;;;56.77;23.83;;;12.70;68.60;;;;;;5084555;28;20185;-82
2023/10/24 00:23:33;;;;;;;120.80;25.40;;;12.70;68.70;;;;;;5075247;28;20184;-81
2023/10/24 00:25:58;;;;;;;42.50;22.90;;;12.80;68.80;;;;;;5084246;28;20212;-82
2023/10/24 00:28:24;;;;;;;37.27;21.20;;;12.80;68.80;;;;;;5072443;28;20188;-81
2023/10/24 00:30:49;;;;;;;42.30;24.30;;;12.80;68.80;;;;;;5067175;28;20181;-81
2023/10/24 00:33:15;;;;;;;40.50;25.23;;;12.90;69.00;;;;;;5070437;28;20181;-81
2023/10/24 00:35:41;;;;;;;40.40;26.70;;;12.90;69.00;;;;;;5074797;28;20509;-81
2023/10/24 00:38:06;;;;;;;33.70;26.17;;;12.90;69.00;;;;;;5085124;28;20181;-82
2023/10/24 00:40:33;;;;;;;29.60;25.47;;;13.00;69.10;;;;;;5073983;28;20280;-81
2023/10/24 00:43:06;;;;;;;32.43;25.77;;;13.00;69.00;;;;;;5076871;28;20273;-81
2023/10/24 00:45:34;;;;;;;28.63;24.93;;;13.00;68.90;;;;;;5081302;28;20228;-82
2023/10/24 00:48:01;;;;;;;28.83;24.90;;;13.10;69.20;;;;;;5072329;28;20183;-81
2023/10/24 00:50:27;;;;;;;25.90;23.20;;;13.10;69.30;;;;;;5096977;28;20200;-81
2023/10/24 00:52:53;;;;;;;28.10;24.77;;;13.10;69.20;;;;;;5095490;28;20255;-82
2023/10/24 00:55:20;;;;;;;27.67;24.83;;;13.10;69.30;;;;;;5077683;28;20264;-82
2023/10/24 00:57:48;;;;;;;26.60;23.87;;;13.20;69.50;;;;;;5077093;28;20168;-81
2023/10/24 01:00:14;;;;;;;24.23;21.83;;;13.20;69.40;;;;;;5077001;28;20520;-81
2023/10/24 01:02:40;;;;;;;26.63;23.80;;;13.20;69.50;;;;;;5083567;28;20188;-82
2023/10/24 01:05:07;;;;;;;26.63;23.87;;;13.30;70.00;;;;;;5081906;28;20192;-82
2023/10/24 01:07:33;;;;;;;26.27;23.47;;;13.30;70.00;;;;;;5077063;28;20271;-81
2023/10/24 01:09:59;;;;;;;30.53;26.10;;;13.30;70.30;;;;;;5075251;28;20188;-81
2023/10/24 01:12:25;;;;;;;28.50;25.53;;;13.40;69.90;;;;;;5071136;28;20177;-83
2023/10/24 01:14:51;;;;;;;28.10;25.10;;;13.40;69.80;;;;;;5073874;28;20184;-81
2023/10/24 01:20:41;;;;;;;28.37;25.33;;;13.50;70.00;;;;;;5068159;28;20191;-82
2023/10/24 01:23:08;;;;;;;29.53;26.27;;;13.50;70.10;;;;;;5082865;28;20172;-82
2023/10/24 01:25:38;;;;;;;28.93;25.77;;;13.50;70.00;;;;;;5071712;28;20556;-82
2023/10/24 01:28:04;;;;;;;23.60;21.13;;;13.50;70.00;;;;;;5077845;28;20172;-81
2023/10/24 01:30:30;;;;;;;26.57;23.77;;;13.50;70.00;;;;;;5073056;28;20276;-82
2023/10/24 01:32:55;;;;;;;26.23;23.50;;;13.50;70.10;;;;;;5090841;28;20274;-82
2023/10/24 01:35:21;;;;;;;26.03;23.37;;;13.50;70.00;;;;;;5086304;28;20175;-81
2023/10/24 01:37:47;;;;;;;28.20;24.67;;;13.50;70.20;;;;;;5093066;28;20175;-81
2023/10/24 01:40:13;;;;;;;26.77;23.73;;;13.60;70.30;;;;;;5075794;28;20176;-81
2023/10/24 01:42:38;;;;;;;28.07;23.90;;;13.50;70.00;;;;;;5070722;28;20192;-82
2023/10/24 01:45:05;;;;;;;30.13;27.03;;;13.60;70.10;;;;;;5072919;28;20228;-81
2023/10/24 01:47:30;;;;;;;35.03;29.43;;;13.60;70.10;;;;;;5074317;28;20176;-81
2023/10/24 01:49:56;;;;;;;31.23;27.30;;;13.60;70.00;;;;;;5071509;28;20177;-82
2023/10/24 01:52:22;;;;;;;33.63;29.30;;;13.60;70.00;;;;;;5066180;28;20619;-81
2023/10/24 01:54:47;;;;;;;30.03;26.70;;;13.70;70.10;;;;;;5066440;28;20181;-81
2023/10/24 01:57:14;;;;;;;32.17;28.73;;;13.60;69.90;;;;;;5065346;28;20527;-82
2023/10/24 01:59:40;;;;;;;30.47;26.07;;;13.60;70.00;;;;;;5069409;28;20185;-81
2023/10/24 02:02:05;;;;;;;32.00;27.03;;;13.60;70.00;;;;;;5058951;28;20685;-81
2023/10/24 02:04:31;;;;;;;31.67;28.27;;;13.60;70.00;;;;;;5062810;28;20212;-82
2023/10/24 02:06:57;;;;;;;34.47;29.63;;;13.60;69.90;;;;;;5064701;28;20186;-81
2023/10/24 02:09:22;;;;;;;29.77;26.83;;;13.60;70.10;;;;;;5055151;28;20181;-82
2023/10/24 02:11:48;;;;;;;29.27;26.10;;;13.60;70.10;;;;;;5068423;28;20250;-82
2023/10/24 02:14:13;;;;;;;31.53;28.17;;;13.60;70.10;;;;;;5068983;28;20638;-81
2023/10/24 02:16:39;;;;;;;31.57;26.93;;;13.60;70.20;;;;;;5068607;28;20189;-82
2023/10/24 02:19:05;;;;;;;27.10;23.90;;;13.60;70.10;;;;;;5066224;28;20183;-81
2023/10/24 02:21:30;;;;;;;28.40;25.50;;;13.60;70.20;;;;;;5067725;28;20251;-82
2023/10/24 02:23:57;;;;;;;32.37;28.83;;;13.60;70.30;;;;;;5067685;28;20181;-82
2023/10/24 02:27:06;;;;;;;31.73;28.50;;;13.70;70.40;;;;;;5069977;28;20173;-82
2023/10/24 02:29:33;;;;;;;29.40;26.23;;;13.70;70.30;;;;;;5067034;28;20173;-81
2023/10/24 02:32:00;;;;;;;27.43;24.53;;;13.70;70.30;;;;;;5068064;28;20162;-81
2023/10/24 02:34:25;;;;;;;25.67;22.80;;;13.70;70.30;;;;;;5069152;28;20177;-81
2023/10/24 02:36:51;;;;;;;29.50;26.40;;;13.70;70.40;;;;;;5067296;28;20268;-82
2023/10/24 02:39:18;;;;;;;30.13;27.03;;;13.80;70.60;;;;;;5066985;28;20188;-82
2023/10/24 02:41:44;;;;;;;29.33;26.27;;;13.80;70.50;;;;;;5082739;28;20177;-82
2023/10/24 02:44:09;;;;;;;42.07;32.07;;;13.90;70.50;;;;;;5082381;28;20699;-82
2023/10/24 02:46:53;;;;;;;28.53;25.63;;;13.90;70.50;;;;;;5068988;28;20188;-82
2023/10/24 02:49:19;;;;;;;27.00;24.20;;;13.90;70.40;;;;;;5068709;28;20204;-81
2023/10/24 02:51:44;;;;;;;29.07;25.97;;;13.90;70.50;;;;;;5068620;28;20222;-82
2023/10/24 02:54:10;;;;;;;28.80;25.73;;;13.90;70.60;;;;;;5072591;28;20188;-81
2023/10/24 02:56:36;;;;;;;28.47;25.00;;;13.90;70.60;;;;;;5073168;28;20185;-81
2023/10/24 02:59:01;;;;;;;28.80;25.87;;;13.90;70.70;;;;;;5071411;28;20531;-82
2023/10/24 03:01:27;;;;;;;28.23;25.00;;;13.90;70.60;;;;;;5069459;28;20193;-82
2023/10/24 03:03:53;;;;;;;30.00;26.80;;;13.90;70.70;;;;;;5072328;28;20525;-82
2023/10/24 03:06:19;;;;;;;30.87;26.17;;;14.00;70.80;;;;;;5070752;28;20178;-81
2023/10/24 03:08:45;;;;;;;26.37;23.30;;;14.00;70.80;;;;;;5072979;28;20554;-82
2023/10/24 03:11:10;;;;;;;31.03;26.83;;;14.00;70.70;;;;;;5071534;28;20191;-82
2023/10/24 03:13:36;;;;;;;30.70;27.47;;;14.00;70.80;;;;;;5070361;28;20652;-82
2023/10/24 03:16:06;;;;;;;29.13;26.07;;;14.00;70.80;;;;;;5070071;28;20217;-82
2023/10/24 03:18:33;;;;;;;22.77;20.47;;;14.00;70.60;;;;;;5070828;28;20307;-82
2023/10/24 03:20:59;;;;;;;28.57;25.47;;;14.00;70.60;;;;;;5072199;28;20193;-81
2023/10/24 03:23:25;;;;;;;27.97;24.93;;;14.00;70.90;;;;;;5072885;28;20173;-82
2023/10/24 03:25:51;;;;;;;31.00;27.03;;;14.00;71.00;;;;;;5069031;28;20213;-81
2023/10/24 03:28:17;;;;;;;25.60;23.03;;;14.10;71.00;;;;;;5065079;28;20242;-82
2023/10/24 03:30:43;;;;;;;23.73;21.23;;;14.10;70.90;;;;;;5066149;28;20634;-82
2023/10/24 03:33:09;;;;;;;30.87;27.13;;;14.10;70.80;;;;;;5069499;28;20621;-81
2023/10/24 03:35:36;;;;;;;34.93;29.87;;;14.10;70.80;;;;;;5085526;28;20613;-81
2023/10/24 03:38:02;;;;;;;28.77;25.67;;;14.00;70.60;;;;;;5069206;28;20224;-82
2023/10/24 03:40:28;;;;;;;27.87;24.77;;;14.00;70.60;;;;;;5069813;28;20184;-81
2023/10/24 03:42:54;;;;;;;25.57;22.43;;;14.00;71.40;;;;;;5068975;28;20260;-82
2023/10/24 03:45:20;;;;;;;26.30;23.60;;;14.00;70.60;;;;;;5068729;28;20772;-81
2023/10/24 03:47:48;;;;;;;24.93;22.33;;;14.00;70.70;;;;;;5071766;28;20173;-81
2023/10/24 03:50:14;;;;;;;27.13;24.37;;;14.00;70.60;;;;;;5073096;28;20181;-81
2023/10/24 03:52:40;;;;;;;26.77;24.03;;;13.90;70.50;;;;;;5074559;28;20647;-81
2023/10/24 03:55:06;;;;;;;23.93;21.50;;;14.00;70.50;;;;;;5071117;28;20181;-82
2023/10/24 03:57:31;;;;;;;23.87;21.43;;;13.90;70.40;;;;;;5071725;28;20626;-82
2023/10/24 03:59:57;;;;;;;23.53;21.03;;;13.80;70.10;;;;;;5071763;28;20181;-81
2023/10/24 04:02:22;;;;;;;27.60;23.97;;;13.80;70.20;;;;;;5092799;28;20208;-81
2023/10/24 04:04:48;;;;;;;27.07;24.13;;;13.70;70.00;;;;;;5078842;28;20219;-81
2023/10/24 04:07:14;;;;;;;27.10;22.33;;;13.70;70.10;;;;;;5079413;28;20188;-81
2023/10/24 04:09:39;;;;;;;30.33;26.53;;;13.60;70.10;;;;;;5080698;28;20556;-81
2023/10/24 04:12:08;;;;;;;29.87;26.30;;;13.60;70.10;;;;;;5075278;28;20170;-81
2023/10/24 04:14:34;;;;;;;26.20;22.57;;;13.60;69.90;;;;;;5072199;28;20220;-81
2023/10/24 04:16:59;;;;;;;25.07;22.47;;;13.60;70.00;;;;;;5063183;28;20220;-81
2023/10/24 04:19:25;;;;;;;24.73;21.90;;;13.60;70.00;;;;;;5084304;28;20180;-82
2023/10/24 04:21:51;;;;;;;26.30;23.63;;;13.60;70.10;;;;;;5069403;28;20181;-82
2023/10/24 04:24:16;;;;;;;24.40;21.90;;;13.60;70.00;;;;;;5068501;28;20219;-82
2023/10/24 04:26:42;;;;;;;27.90;24.90;;;13.60;69.90;;;;;;5086557;28;20263;-82
2023/10/24 04:29:08;;;;;;;25.37;22.73;;;13.60;69.80;;;;;;5068447;28;20177;-81
2023/10/24 04:31:33;;;;;;;26.03;23.40;;;13.60;69.90;;;;;;5069185;28;20549;-81
2023/10/24 04:33:59;;;;;;;27.87;24.87;;;13.60;69.80;;;;;;5066852;28;20181;-81
2023/10/24 04:36:25;;;;;;;50.17;27.23;;;13.60;69.90;;;;;;5069161;28;20173;-82
2023/10/24 04:38:50;;;;;;;77.97;26.10;;;13.60;69.90;;;;;;5070355;28;20179;-82
2023/10/24 04:41:16;;;;;;;78.97;28.40;;;13.60;70.10;;;;;;5068806;28;20605;-82
2023/10/24 04:43:41;;;;;;;60.27;27.30;;;13.60;70.20;;;;;;5068051;28;20312;-81
2023/10/24 04:46:07;;;;;;;55.07;27.37;;;13.60;70.30;;;;;;5067992;28;20227;-81
2023/10/24 04:48:33;;;;;;;65.57;30.67;;;13.60;70.30;;;;;;5067698;28;20231;-81
2023/10/24 04:50:58;;;;;;;46.17;25.70;;;13.70;70.50;;;;;;5072504;28;20176;-81
2023/10/24 04:53:24;;;;;;;70.10;26.27;;;13.60;70.50;;;;;;5073407;28;20605;-81
2023/10/24 04:55:49;;;;;;;114.03;33.57;;;13.70;70.70;;;;;;5075481;28;20197;-82
2023/10/24 04:58:15;;;;;;;115.23;31.70;;;13.60;70.70;;;;;;5071593;28;20577;-82
2023/10/24 05:00:40;;;;;;;102.43;30.50;;;13.60;70.70;;;;;;5070376;28;20194;-82
2023/10/24 05:03:06;;;;;;;149.03;33.30;;;13.70;71.00;;;;;;5067095;28;20201;-82
2023/10/24 05:05:32;;;;;;;139.00;28.03;;;13.70;71.10;;;;;;5070797;28;20209;-82
2023/10/24 05:07:58;;;;;;;127.73;29.33;;;13.70;71.00;;;;;;5072014;28;20209;-84
2023/10/24 05:10:23;;;;;;;222.70;34.13;;;13.70;71.10;;;;;;5067186;28;20173;-83
2023/10/24 05:12:49;;;;;;;164.83;29.27;;;13.70;71.10;;;;;;5068146;28;20259;-83
2023/10/24 05:15:14;;;;;;;128.40;29.53;;;13.70;71.30;;;;;;5058724;28;20587;-83
2023/10/24 05:17:40;;;;;;;110.57;31.23;;;13.80;71.50;;;;;;5070818;28;20248;-83
2023/10/24 05:20:07;;;;;;;192.63;33.60;;;13.80;71.50;;;;;;5063099;28;20217;-81
2023/10/24 05:22:33;;;;;;;228.87;31.00;;;13.80;71.50;;;;;;5059219;28;20181;-83
2023/10/24 05:24:59;;;;;;;271.43;34.83;;;13.80;71.70;;;;;;5066395;28;20747;-83
2023/10/24 05:27:26;;;;;;;185.50;29.27;;;13.80;71.60;;;;;;5064907;28;20173;-82
2023/10/24 05:29:52;;;;;;;172.87;28.47;;;13.80;71.60;;;;;;5069947;28;20172;-83
2023/10/24 05:32:17;;;;;;;260.20;35.93;;;13.80;71.70;;;;;;5065357;28;20208;-82
2023/10/24 05:34:43;;;;;;;241.77;33.33;;;13.80;71.70;;;;;;5065232;28;20633;-81
2023/10/24 05:37:09;;;;;;;260.50;34.23;;;13.80;71.80;;;;;;5066229;28;20184;-83
2023/10/24 05:39:34;;;;;;;271.07;34.43;;;13.80;71.80;;;;;;5067452;28;20178;-81
2023/10/24 05:42:00;;;;;;;299.23;33.67;;;13.80;72.00;;;;;;5067592;28;20169;-81
2023/10/24 05:44:26;;;;;;;289.40;33.90;;;13.90;72.20;;;;;;5068771;28;20315;-81
2023/10/24 05:46:52;;;;;;;270.43;32.03;;;13.80;72.10;;;;;;5065394;28;20181;-82
2023/10/24 05:49:55;;;;;;;300.03;36.50;;;13.80;72.00;;;;;;5065678;28;20192;-83
2023/10/24 05:52:20;;;;;;;222.47;29.67;;;13.80;72.10;;;;;;5063716;28;20226;-82
2023/10/24 05:54:46;;;;;;;209.93;31.27;;;13.70;72.10;;;;;;5065525;28;20186;-82
2023/10/24 05:57:11;;;;;;;270.57;33.73;;;13.70;72.50;;;;;;5068659;28;20532;-83
2023/10/24 05:59:37;;;;;;;99.53;25.43;;;13.70;72.60;;;;;;5070514;28;20169;-82
2023/10/24 06:02:03;;;;;;;238.87;34.07;;;13.80;72.80;;;;;;5067525;28;20181;-84
2023/10/24 06:04:28;;;;;;;233.80;37.23;;;13.80;72.80;;;;;;5065121;28;20648;-82
2023/10/24 06:06:54;;;;;;;196.23;31.83;;;13.80;73.50;;;;;;5068448;28;20616;-82
2023/10/24 06:09:20;;;;;;;137.80;29.40;;;13.80;72.80;;;;;;5066197;28;20270;-82
2023/10/24 06:11:45;;;;;;;232.87;31.53;;;13.80;72.80;;;;;;5068538;28;20193;-83
2023/10/24 06:14:11;;;;;;;162.27;27.70;;;13.80;72.70;;;;;;5067918;28;20652;-81
2023/10/24 06:16:36;;;;;;;193.87;28.97;;;13.70;72.60;;;;;;5065788;28;20185;-83
2023/10/24 06:19:02;;;;;;;181.37;26.47;;;13.70;72.60;;;;;;5067862;28;20201;-82
2023/10/24 06:21:28;;;;;;;172.57;30.60;;;13.70;72.70;;;;;;5065448;28;20327;-82
2023/10/24 06:23:53;;;;;;;121.57;22.70;;;13.70;72.90;;;;;;5070037;28;20169;-82
2023/10/24 06:26:19;;;;;;;104.67;21.77;;;13.70;72.90;;;;;;5066107;28;20706;-83
2023/10/24 06:28:45;;;;;;;116.60;21.57;;;13.70;72.90;;;;;;5069854;28;20181;-83
2023/10/24 06:31:12;;;;;;;143.67;24.33;;;13.70;72.90;;;;;;5067713;28;20215;-82
2023/10/24 06:33:38;;;;;;;151.03;24.20;;;13.70;72.90;;;;;;5069688;28;20503;-81
2023/10/24 06:36:04;;;;;;;75.53;17.97;;;13.80;73.30;;;;;;5070453;28;20629;-83
2023/10/24 06:38:30;;;;;;;125.70;22.07;;;13.80;73.10;;;;;;5086315;28;20535;-83
2023/10/24 06:40:56;;;;;;;102.43;21.30;;;13.90;73.10;;;;;;5062576;28;20196;-82
2023/10/24 06:43:23;;;;;;;87.90;21.03;;;13.90;72.70;;;;;;5067207;28;20176;-81
2023/10/24 06:45:49;;;;;;;62.93;20.57;;;13.90;72.90;;;;;;5067904;28;20215;-82
2023/10/24 06:48:14;;;;;;;82.10;22.70;;;13.90;73.00;;;;;;5070482;28;20169;-82
2023/10/24 06:50:40;;;;;;;71.40;20.93;;;13.90;72.90;;;;;;5068982;28;20627;-82
2023/10/24 06:53:08;;;;;;;113.30;24.07;;;13.90;72.80;;;;;;5067586;28;20188;-82
2023/10/24 06:55:35;;;;;;;60.53;23.23;;;13.90;72.90;;;;;;5068987;28;20192;-82
2023/10/24 06:58:01;;;;;;;76.13;23.20;;;13.90;73.00;;;;;;5070525;28;20231;-81
2023/10/24 07:00:26;;;;;;;54.70;22.40;;;14.00;73.10;;;;;;5070970;28;20634;-82
2023/10/24 07:02:52;;;;;;;39.80;20.20;;;14.00;73.00;;;;;;5071907;28;20173;-82
2023/10/24 07:05:19;;;;;;;29.97;20.73;;;14.10;73.10;;;;;;5068527;28;20225;-82
2023/10/24 07:07:44;;;;;;;39.77;21.43;;;14.10;73.10;;;;;;5069318;28;20197;-82
2023/10/24 07:10:10;;;;;;;36.77;22.83;;;14.10;73.10;;;;;;5069457;28;20196;-82
2023/10/24 07:15:58;;;;;;;31.90;22.30;;;14.30;73.10;;;;;;5064818;28;20188;-81
2023/10/24 07:18:23;;;;;;;30.53;22.30;;;14.30;72.90;;;;;;5069167;28;20189;-82
2023/10/24 07:20:49;;;;;;;26.80;22.10;;;14.30;73.60;;;;;;5073538;28;20169;-82
2023/10/24 07:23:14;;;;;;;32.70;24.10;;;14.40;72.80;;;;;;5069671;28;20657;-82
2023/10/24 07:25:41;;;;;;;38.43;25.53;;;14.40;72.90;;;;;;5070364;28;20930;-82
2023/10/24 07:28:06;;;;;;;26.17;21.50;;;14.50;72.80;;;;;;5069608;28;20611;-82
2023/10/24 07:30:32;;;;;;;30.03;22.07;;;14.60;72.90;;;;;;5068729;28;20185;-82
2023/10/24 07:32:58;;;;;;;28.47;23.17;;;14.60;72.80;;;;;;5070337;28;20505;-82
2023/10/24 07:35:24;;;;;;;28.57;22.63;;;14.60;72.70;;;;;;5066493;28;20201;-82
2023/10/24 07:37:50;;;;;;;23.40;19.53;;;14.70;72.70;;;;;;5068679;28;20238;-82
2023/10/24 07:40:16;;;;;;;27.67;21.80;;;14.70;72.70;;;;;;5069080;28;20182;-82
2023/10/24 07:42:41;;;;;;;25.50;20.23;;;14.80;72.80;;;;;;5068988;28;20626;-82
2023/10/24 07:45:07;;;;;;;26.93;22.07;;;14.80;72.60;;;;;;5073351;28;20265;-82
2023/10/24 07:47:33;;;;;;;27.90;21.60;;;14.90;72.90;;;;;;5069208;28;20214;-82
2023/10/24 07:49:59;;;;;;;26.67;21.93;;;14.90;72.90;;;;;;5068743;28;20173;-82
2023/10/24 07:52:25;;;;;;;28.60;21.87;;;15.00;73.00;;;;;;5066525;28;20282;-82
2023/10/24 07:54:50;;;;;;;27.73;22.37;;;15.10;73.00;;;;;;5068667;28;20190;-82
2023/10/24 07:57:16;;;;;;;30.30;22.77;;;15.10;73.10;;;;;;5071328;28;20184;-82
2023/10/24 07:59:42;;;;;;;30.17;24.37;;;15.20;73.10;;;;;;5068337;28;20186;-82
2023/10/24 08:02:07;;;;;;;31.73;24.63;;;15.30;72.90;;;;;;5067976;28;20260;-82
2023/10/24 08:04:34;;;;;;;35.67;27.20;;;15.20;72.60;;;;;;5067204;28;20318;-82
2023/10/24 08:07:00;;;;;;;38.63;27.87;;;15.20;72.80;;;;;;5071043;28;20169;-82
2023/10/24 08:09:26;;;;;;;40.90;30.00;;;15.30;72.90;;;;;;5069895;28;20256;-82
2023/10/24 08:11:51;;;;;;;38.17;30.07;;;15.30;72.80;;;;;;5070378;28;20302;-81
2023/10/24 08:14:17;;;;;;;45.00;30.07;;;15.30;72.60;;;;;;5070555;28;20629;-82
2023/10/24 08:16:43;;;;;;;34.00;24.87;;;15.30;72.80;;;;;;5068191;28;20188;-82
2023/10/24 08:19:08;;;;;;;34.27;27.63;;;15.30;72.70;;;;;;5071136;28;20180;-82
2023/10/24 08:21:34;;;;;;;29.17;25.33;;;15.30;72.80;;;;;;5068398;28;20293;-82
2023/10/24 08:24:00;;;;;;;36.60;26.90;;;15.30;72.60;;;;;;5070638;28;20177;-81
2023/10/24 08:26:25;;;;;;;32.17;26.10;;;15.30;72.70;;;;;;5069436;28;20188;-81
2023/10/24 08:28:51;;;;;;;36.50;28.00;;;15.40;72.90;;;;;;5068885;28;20243;-82
2023/10/24 08:31:16;;;;;;;37.60;26.10;;;15.40;72.80;;;;;;5067945;28;20199;-82
2023/10/24 08:33:42;;;;;;;31.03;26.10;;;15.40;72.60;;;;;;5068787;28;20689;-82
2023/10/24 08:36:08;;;;;;;33.87;27.67;;;15.40;72.80;;;;;;5071109;28;20181;-82
2023/10/24 08:38:33;;;;;;;35.57;27.70;;;15.40;72.80;;;;;;5066234;28;20230;-82
2023/10/24 08:40:59;;;;;;;33.30;26.77;;;15.40;72.80;;;;;;5069330;28;20613;-81
2023/10/24 08:43:25;;;;;;;35.70;26.80;;;15.40;73.10;;;;;;5067668;28;20263;-82
2023/10/24 08:45:51;;;;;;;29.80;25.00;;;15.40;73.10;;;;;;5065814;28;20214;-81
2023/10/24 08:48:17;;;;;;;31.23;25.43;;;15.40;73.10;;;;;;5070503;28;21372;-82
2023/10/24 08:50:44;;;;;;;33.40;26.87;;;15.50;73.40;;;;;;5081122;28;20268;-82
2023/10/24 08:53:13;;;;;;;30.87;26.17;;;15.50;73.30;;;;;;5070120;28;20185;-81
2023/10/24 08:55:46;;;;;;;29.83;24.13;;;15.60;73.10;;;;;;5065995;28;20215;-82
2023/10/24 08:58:16;;;;;;;32.60;24.20;;;15.60;73.20;;;;;;5068666;28;20192;-82
2023/10/24 09:00:42;;;;;;;26.07;22.77;;;15.70;73.40;;;;;;5057669;28;20598;-82
2023/10/24 09:03:08;;;;;;;27.97;23.20;;;15.80;73.60;;;;;;5067213;28;20276;-82
2023/10/24 09:05:34;;;;;;;30.03;24.10;;;15.80;73.20;;;;;;5067984;28;20630;-82
2023/10/24 09:07:59;;;;;;;29.60;24.00;;;15.90;73.10;;;;;;5069506;28;20181;-82
2023/10/24 09:10:25;;;;;;;31.33;23.73;;;15.90;73.20;;;;;;5067148;28;20633;-82
2023/10/24 09:12:56;;;;;;;33.07;22.80;;;15.90;73.30;;;;;;5069373;28;20177;-82
2023/10/24 09:15:22;;;;;;;28.23;23.87;;;15.90;73.30;;;;;;5068178;28;20173;-82
2023/10/24 09:17:47;;;;;;;31.67;23.70;;;15.90;73.20;;;;;;5070711;28;20226;-82
2023/10/24 09:20:16;;;;;;;28.33;22.40;;;15.90;73.20;;;;;;5065545;28;20505;-82
2023/10/24 09:22:42;;;;;;;26.10;22.90;;;15.90;73.00;;;;;;5063834;28;20679;-82
2023/10/24 09:25:08;;;;;;;25.47;22.07;;;15.90;72.90;;;;;;5064749;28;20240;-82
2023/10/24 09:27:34;;;;;;;28.30;22.97;;;15.80;72.90;;;;;;5065341;28;20212;-82
2023/10/24 09:30:13;;;;;;;25.80;20.30;;;15.90;73.40;;;;;;5068032;28;20204;-83
2023/10/24 09:32:43;;;;;;;28.23;21.53;;;15.80;73.30;;;;;;5065841;28;20204;-82
2023/10/24 09:35:09;;;;;;;26.47;19.60;;;15.80;73.50;;;;;;5065034;28;20208;-82
2023/10/24 09:37:38;;;;;;;27.47;20.70;;;15.90;73.80;;;;;;5065174;28;20216;-83
2023/10/24 09:40:05;;;;;;;27.53;21.30;;;16.00;73.80;;;;;;5066114;28;20181;-82
2023/10/24 09:42:31;;;;;;;29.63;22.00;;;16.10;73.70;;;;;;5066755;28;20177;-83
2023/10/24 09:45:02;;;;;;;28.80;21.07;;;16.10;73.10;;;;;;5067299;28;20243;-82
2023/10/24 09:47:29;;;;;;;23.73;20.63;;;16.10;73.20;;;;;;5065273;28;20181;-82
2023/10/24 09:49:55;;;;;;;25.20;18.70;;;16.20;73.10;;;;;;5063426;28;20246;-82
2023/10/24 09:52:23;;;;;;;21.57;18.97;;;16.20;73.20;;;;;;5065214;28;20177;-81
2023/10/24 09:54:50;;;;;;;26.37;18.37;;;16.20;73.30;;;;;;5064004;28;20189;-81
2023/10/24 09:57:18;;;;;;;23.60;17.07;;;16.30;73.20;;;;;;5064285;28;20180;-82
2023/10/24 09:59:47;;;;;;;20.63;16.50;;;16.20;72.80;;;;;;5066216;28;20256;-82
2023/10/24 10:02:19;;;;;;;22.10;17.50;;;16.30;73.70;;;;;;5067357;28;20246;-82
2023/10/24 10:04:47;;;;;;;22.20;17.83;;;16.30;72.90;;;;;;5066689;28;20264;-81
2023/10/24 10:07:14;;;;;;;24.67;17.80;;;16.40;72.40;;;;;;5069472;28;20264;-82
2023/10/24 10:09:43;;;;;;;21.47;17.23;;;16.30;72.70;;;;;;5069010;28;20193;-83
2023/10/24 10:12:12;;;;;;;18.37;15.53;;;16.30;72.60;;;;;;5062092;28;20233;-82
2023/10/24 10:14:57;;;;;;;21.70;15.90;;;16.30;72.40;;;;;;5067937;28;20617;-82
2023/10/24 10:17:32;;;;;;;18.20;15.20;;;16.40;72.40;;;;;;5072100;28;20226;-82
2023/10/24 10:20:12;;;;;;;20.17;14.77;;;16.40;72.20;;;;;;5068052;28;20204;-82
2023/10/24 10:22:54;;;;;;;16.53;13.77;;;16.50;72.30;;;;;;5067546;28;20216;-82
2023/10/24 10:25:50;;;;;;;15.37;12.23;;;16.60;72.10;;;;;;5064918;28;20212;-82
2023/10/24 10:28:27;;;;;;;17.23;13.03;;;16.60;71.70;;;;;;5057632;28;20188;-82
2023/10/24 10:30:59;;;;;;;17.20;13.10;;;16.60;71.30;;;;;;5070180;28;20177;-82
2023/10/24 10:33:26;;;;;;;19.60;13.63;;;16.70;71.40;;;;;;5072787;28;20173;-82
2023/10/24 10:35:57;;;;;;;17.87;12.93;;;16.80;71.50;;;;;;5072943;28;20180;-82
2023/10/24 10:38:35;;;;;;;16.00;13.30;;;16.90;71.40;;;;;;5072085;28;20522;-82
2023/10/24 10:41:20;;;;;;;17.60;13.37;;;16.90;71.20;;;;;;5068556;28;20251;-82
2023/10/24 10:43:45;;;;;;;15.47;12.63;;;17.00;70.70;;;;;;5070164;28;20262;-82
2023/10/24 10:46:19;;;;;;;18.37;12.67;;;17.00;70.70;;;;;;5069046;28;20240;-82
2023/10/24 10:48:48;;;;;;;16.60;11.57;;;17.10;70.80;;;;;;5067720;28;20545;-82
2023/10/24 10:51:26;;;;;;;18.00;12.00;;;17.20;70.60;;;;;;5088987;28;20165;-82
2023/10/24 10:54:07;;;;;;;16.17;10.93;;;17.30;70.50;;;;;;5072244;28;20177;-82
2023/10/24 10:56:35;;;;;;;12.50;9.97;;;17.30;70.20;;;;;;5070064;28;20636;-82
2023/10/24 10:59:37;;;;;;;15.73;10.20;;;17.40;69.70;;;;;;5070575;28;20231;-82
2023/10/24 11:02:16;;;;;;;15.57;10.30;;;17.40;69.20;;;;;;5070264;28;20208;-82
2023/10/24 11:04:42;;;;;;;14.63;9.90;;;17.50;69.30;;;;;;5067399;28;20212;-82
2023/10/24 11:07:09;;;;;;;13.77;9.03;;;17.50;69.30;;;;;;5068996;28;20205;-82
2023/10/24 11:09:37;;;;;;;12.20;8.03;;;17.60;69.30;;;;;;5069727;28;20201;-82
2023/10/24 11:12:21;;;;;;;13.30;8.67;;;17.70;69.00;;;;;;5069060;28;20176;-82
2023/10/24 11:15:13;;;;;;;8.87;7.67;;;17.80;68.60;;;;;;5068274;28;20538;-82
2023/10/24 11:17:39;;;;;;;10.77;8.03;;;17.90;68.70;;;;;;5065854;28;20637;-82
2023/10/24 11:20:07;;;;;;;12.17;7.53;;;18.00;68.90;;;;;;5062612;28;20185;-82
2023/10/24 11:22:34;;;;;;;13.13;7.57;;;18.10;69.10;;;;;;5068316;28;20188;-83
2023/10/24 11:25:00;;;;;;;10.70;6.67;;;18.20;69.20;;;;;;5070190;28;20223;-82
2023/10/24 11:27:26;;;;;;;11.70;6.97;;;18.40;69.60;;;;;;5069577;28;20621;-82
2023/10/24 11:29:52;;;;;;;10.97;6.57;;;18.70;68.40;;;;;;5068919;28;20203;-82
2023/10/24 11:32:18;;;;;;;10.43;7.07;;;18.80;67.00;;;;;;5069720;28;20250;-82
2023/10/24 11:34:44;;;;;;;9.10;6.50;;;19.10;66.40;;;;;;5065793;28;20192;-82
2023/10/24 11:37:09;;;;;;;10.10;6.87;;;19.20;65.30;;;;;;5068808;28;20293;-82
2023/10/24 11:39:35;;;;;;;11.87;6.43;;;19.30;64.90;;;;;;5067394;28;20188;-82
2023/10/24 11:42:04;;;;;;;10.30;6.80;;;19.30;64.70;;;;;;5071340;28;20628;-82
2023/10/24 11:44:30;;;;;;;11.53;6.30;;;19.30;64.40;;;;;;5069136;28;20217;-83
2023/10/24 11:46:55;;;;;;;11.43;6.47;;;19.20;64.20;;;;;;5068745;28;20227;-82
2023/10/24 11:49:32;;;;;;;7.57;6.27;;;19.10;63.50;;;;;;5068266;28;20684;-82
2023/10/24 11:51:57;;;;;;;12.60;6.93;;;19.10;63.70;;;;;;5056570;28;20272;-82
2023/10/24 11:54:25;;;;;;;15.13;6.27;;;19.10;64.00;;;;;;5070616;28;20263;-82
2023/10/24 11:56:51;;;;;;;10.13;5.33;;;19.00;63.70;;;;;;5066822;28;20185;-82
2023/10/24 11:59:16;;;;;;;10.83;5.53;;;19.00;63.90;;;;;;5067497;28;20177;-82
2023/10/24 12:01:43;;;;;;;7.63;5.07;;;19.00;63.50;;;;;;5064241;28;20189;-82
2023/10/24 12:04:14;;;;;;;5.53;4.10;;;19.00;63.60;;;;;;5069817;28;20208;-82
2023/10/24 12:06:40;;;;;;;8.67;5.53;;;19.00;63.30;;;;;;5069705;28;20212;-82
2023/10/24 12:09:06;;;;;;;9.60;4.83;;;19.00;62.90;;;;;;5068538;28;20197;-82
2023/10/24 12:11:33;;;;;;;10.97;4.87;;;18.90;62.40;;;;;;5070389;28;20212;-82
2023/10/24 12:13:59;;;;;;;6.43;4.60;;;18.90;62.50;;;;;;5071097;28;20179;-82
2023/10/24 12:16:32;;;;;;;10.60;4.87;;;18.80;62.20;;;;;;5067599;28;20272;-82
2023/10/24 12:18:57;;;;;;;7.43;5.00;;;18.80;62.40;;;;;;5077570;28;20272;-82
2023/10/24 12:21:23;;;;;;;10.03;4.80;;;18.80;62.50;;;;;;5070175;28;20255;-82
2023/10/24 12:23:49;;;;;;;10.23;5.20;;;18.80;62.40;;;;;;5066411;28;20185;-82
2023/10/24 12:26:15;;;;;;;9.23;5.30;;;18.90;62.40;;;;;;5068280;28;20240;-82
2023/10/24 12:28:43;;;;;;;8.53;5.17;;;18.90;62.60;;;;;;5069451;28;20192;-82
2023/10/24 12:31:12;;;;;;;11.20;5.27;;;18.90;62.50;;;;;;5067785;28;20182;-82
2023/10/24 12:33:38;;;;;;;9.80;5.17;;;18.90;62.60;;;;;;5070755;28;20177;-83
2023/10/24 12:36:06;;;;;;;9.40;4.97;;;18.90;62.40;;;;;;5067637;28;20181;-83